createdAt,value
2022-09-17T00:02:44.986Z,13.18
2022-09-17T00:05:46.872Z,13.07
2022-09-17T00:08:49.246Z,13.12
2022-09-17T00:11:50.949Z,12.99
2022-09-17T00:14:54.028Z,12.98
2022-09-17T00:17:58.204Z,12.97
2022-09-17T00:21:00.068Z,12.82
2022-09-17T00:24:05.117Z,12.84
2022-09-17T00:27:06.897Z,12.91
2022-09-17T00:30:09.595Z,12.92
2022-09-17T00:33:14.399Z,12.92
2022-09-17T00:36:16.298Z,12.91
2022-09-17T00:39:18.050Z,12.92
2022-09-17T00:42:19.838Z,12.93
2022-09-17T00:45:21.765Z,12.75
2022-09-17T00:48:23.477Z,12.74
2022-09-17T00:51:35.376Z,12.71
2022-09-17T00:54:39.747Z,12.69
2022-09-17T00:57:41.970Z,12.66
2022-09-17T01:00:43.885Z,12.58
2022-09-17T01:03:45.712Z,12.52
2022-09-17T01:07:15.223Z,12.45
2022-09-17T01:10:29.142Z,12.48
2022-09-17T01:13:30.806Z,12.35
2022-09-17T01:16:35.159Z,12.32
2022-09-17T01:19:59.975Z,12.32
2022-09-17T01:23:04.831Z,12.25
2022-09-17T01:26:37.347Z,12.15
2022-09-17T01:29:57.475Z,12.25
2022-09-17T01:33:07.122Z,12.17
2022-09-17T01:36:21.189Z,12.17
2022-09-17T01:40:00.989Z,12.11
2022-09-17T01:44:04.440Z,11.73
2022-09-17T01:47:12.545Z,11.67
2022-09-17T01:50:25.869Z,11.44
2022-09-17T01:53:32.485Z,11.68
2022-09-17T01:56:42.308Z,11.64
2022-09-17T01:59:51.628Z,11.63
2022-09-17T02:03:03.803Z,11.67
2022-09-17T02:06:16.101Z,11.61
2022-09-17T02:09:22.674Z,11.54
2022-09-17T02:12:30.379Z,11.48
2022-09-17T02:15:38.095Z,11.55
2022-09-17T02:18:58.737Z,11.37
2022-09-17T02:22:12.902Z,11.39
2022-09-17T02:25:26.360Z,11.47
2022-09-17T02:28:35.216Z,11.51
2022-09-17T02:31:36.929Z,11.47
2022-09-17T02:34:39.194Z,11.57
2022-09-17T02:37:44.780Z,11.44
2022-09-17T02:40:50.070Z,11.35
2022-09-17T02:44:23.689Z,11.42
2022-09-17T02:47:50.303Z,11.39
2022-09-17T02:51:10.830Z,11.27
2022-09-17T02:54:26.231Z,11.25
2022-09-17T02:57:41.598Z,11.37
2022-09-17T03:00:44.699Z,11.24
2022-09-17T03:03:47.404Z,11.24
2022-09-17T03:06:49.421Z,11.35
2022-09-17T03:09:51.273Z,11.23
2022-09-17T03:12:56.548Z,11.11
2022-09-17T03:15:58.580Z,11.11
2022-09-17T03:19:00.364Z,11.06
2022-09-17T03:22:02.308Z,11.04
2022-09-17T03:25:04.470Z,11.05
2022-09-17T03:28:06.182Z,11.01
2022-09-17T03:31:07.926Z,10.80
2022-09-17T03:34:09.677Z,10.76
2022-09-17T03:37:11.491Z,10.70
2022-09-17T03:40:13.706Z,10.64
2022-09-17T03:43:15.464Z,10.61
2022-09-17T03:46:18.279Z,10.63
2022-09-17T03:49:20.185Z,10.63
2022-09-17T03:52:21.951Z,10.37
2022-09-17T03:55:27.419Z,10.08
2022-09-17T03:58:30.379Z,10.30
2022-09-17T04:01:32.523Z,10.35
2022-09-17T04:04:34.539Z,10.32
2022-09-17T04:07:36.278Z,10.28
2022-09-17T04:10:38.106Z,10.29
2022-09-17T04:13:39.812Z,10.22
2022-09-17T04:16:41.543Z,10.24
2022-09-17T04:19:43.319Z,10.26
2022-09-17T04:22:45.038Z,10.31
2022-09-17T04:25:47.018Z,10.28
2022-09-17T04:28:48.874Z,10.30
2022-09-17T04:31:50.625Z,10.35
2022-09-17T04:34:52.371Z,10.28
2022-09-17T04:37:58.016Z,10.39
2022-09-17T04:41:00.592Z,10.36
2022-09-17T04:44:02.527Z,10.37
2022-09-17T04:47:04.408Z,10.57
2022-09-17T04:50:07.354Z,10.67
2022-09-17T04:53:09.134Z,10.67
2022-09-17T04:56:11.161Z,10.67
2022-09-17T04:59:12.921Z,10.62
2022-09-17T05:02:14.822Z,10.74
2022-09-17T05:05:18.063Z,10.82
2022-09-17T05:08:19.801Z,10.83
2022-09-17T05:11:21.608Z,10.86
2022-09-17T05:14:23.515Z,10.88
2022-09-17T05:17:25.391Z,10.97
2022-09-17T05:20:27.192Z,11.07
2022-09-17T05:23:29.165Z,11.20
2022-09-17T05:26:30.985Z,11.19
2022-09-17T05:29:33.193Z,11.19
2022-09-17T05:32:36.667Z,11.28
2022-09-17T05:35:38.502Z,11.28
2022-09-17T05:38:40.484Z,11.24
2022-09-17T05:41:42.411Z,11.30
2022-09-17T05:44:44.335Z,11.40
2022-09-17T05:47:46.316Z,11.61
2022-09-17T05:50:48.645Z,11.76
2022-09-17T05:53:50.602Z,11.78
2022-09-17T05:56:56.285Z,11.72
2022-09-17T05:59:58.449Z,11.74
2022-09-17T06:03:00.464Z,11.79
2022-09-17T06:06:02.577Z,11.88
2022-09-17T06:09:05.557Z,12.05
2022-09-17T06:12:07.933Z,12.16
2022-09-17T06:15:10.196Z,12.25
2022-09-17T06:18:12.315Z,12.35
2022-09-17T06:21:14.865Z,12.33
2022-09-17T06:24:17.467Z,12.22
2022-09-17T06:27:19.305Z,12.11
2022-09-17T06:30:22.058Z,12.11
2022-09-17T06:33:24.302Z,12.10
2022-09-17T06:36:26.383Z,12.05
2022-09-17T06:39:28.216Z,12.24
2022-09-17T06:42:30.360Z,12.24
2022-09-17T06:45:32.428Z,12.40
2022-09-17T06:48:35.546Z,12.55
2022-09-17T06:51:37.481Z,12.39
2022-09-17T06:54:39.243Z,12.16
2022-09-17T06:57:41.267Z,12.25
2022-09-17T07:00:43.450Z,12.21
2022-09-17T07:03:45.462Z,12.01
2022-09-17T07:06:47.403Z,11.88
2022-09-17T07:09:49.461Z,12.03
2022-09-17T07:12:51.476Z,12.16
2022-09-17T07:15:58.319Z,11.87
2022-09-17T07:19:00.243Z,12.06
2022-09-17T07:22:02.096Z,12.11
2022-09-17T07:25:04.343Z,12.10
2022-09-17T07:28:06.396Z,11.95
2022-09-17T07:31:12.399Z,11.95
2022-09-17T07:34:17.134Z,12.06
2022-09-17T07:37:19.095Z,12.11
2022-09-17T07:40:21.168Z,12.31
2022-09-17T07:43:23.091Z,12.17
2022-09-17T07:46:25.045Z,12.45
2022-09-17T07:49:26.930Z,12.23
2022-09-17T07:52:29.429Z,12.12
2022-09-17T07:55:31.678Z,11.91
2022-09-17T07:58:36.197Z,11.88
2022-09-17T08:01:38.032Z,11.85
2022-09-17T08:04:44.390Z,11.85
2022-09-17T08:07:53.277Z,12.21
2022-09-17T08:10:56.004Z,12.46
2022-09-17T08:13:57.831Z,12.28
2022-09-17T08:16:59.744Z,12.21
2022-09-17T08:20:02.120Z,12.32
2022-09-17T08:23:03.971Z,12.67
2022-09-17T08:26:08.822Z,12.13
2022-09-17T08:29:11.466Z,12.09
2022-09-17T08:32:13.737Z,12.23
2022-09-17T08:35:16.865Z,12.15
2022-09-17T08:38:19.041Z,12.07
2022-09-17T08:41:23.699Z,12.13
2022-09-17T08:44:41.648Z,12.17
2022-09-17T08:47:44.302Z,12.01
2022-09-17T08:50:46.593Z,12.05
2022-09-17T08:54:04.026Z,12.14
2022-09-17T08:57:27.221Z,12.07
2022-09-17T09:00:43.122Z,12.33
2022-09-17T09:04:21.157Z,12.46
2022-09-17T09:07:27.826Z,12.53
2022-09-17T09:10:40.123Z,12.41
2022-09-17T09:13:46.330Z,12.14
2022-09-17T09:16:50.639Z,12.27
2022-09-17T09:19:55.092Z,12.36
2022-09-17T09:23:03.498Z,12.32
2022-09-17T09:26:20.516Z,12.54
2022-09-17T09:29:30.966Z,12.68
2022-09-17T09:32:37.024Z,12.53
2022-09-17T09:35:43.302Z,12.50
2022-09-17T09:38:53.469Z,12.32
2022-09-17T09:42:18.382Z,12.45
2022-09-17T09:45:34.497Z,12.39
2022-09-17T09:49:06.061Z,12.26
2022-09-17T09:52:30.110Z,12.49
2022-09-17T09:55:53.786Z,12.53
2022-09-17T09:58:56.137Z,12.95
2022-09-17T10:01:59.772Z,13.11
2022-09-17T10:05:12.258Z,13.17
2022-09-17T10:08:15.675Z,13.09
2022-09-17T10:11:28.913Z,13.31
2022-09-17T10:14:34.066Z,12.92
2022-09-17T10:17:37.545Z,13.14
2022-09-17T10:20:51.211Z,13.30
2022-09-17T10:23:53.329Z,13.00
2022-09-17T10:27:21.851Z,12.96
2022-09-17T10:30:26.050Z,13.29
2022-09-17T10:33:29.926Z,13.20
2022-09-17T10:36:47.319Z,13.00
2022-09-17T10:39:49.265Z,13.00
2022-09-17T10:43:17.393Z,13.49
2022-09-17T10:46:27.767Z,13.20
2022-09-17T10:49:36.937Z,12.90
2022-09-17T10:52:39.493Z,13.10
2022-09-17T10:55:44.901Z,13.12
2022-09-17T10:58:56.845Z,13.22
2022-09-17T11:02:33.306Z,12.93
2022-09-17T11:05:38.760Z,13.19
2022-09-17T11:08:49.693Z,13.10
2022-09-17T11:12:14.128Z,13.16
2022-09-17T11:15:38.665Z,13.47
2022-09-17T11:18:51.442Z,13.95
2022-09-17T11:22:12.198Z,13.78
2022-09-17T11:25:30.522Z,13.53
2022-09-17T11:28:51.544Z,13.33
2022-09-17T11:32:05.417Z,13.52
2022-09-17T11:35:13.623Z,13.51
2022-09-17T11:38:27.149Z,13.30
2022-09-17T11:41:36.952Z,13.35
2022-09-17T11:45:02.801Z,13.48
2022-09-17T11:48:14.183Z,13.57
2022-09-17T11:51:33.330Z,13.42
2022-09-17T11:54:49.538Z,13.44
2022-09-17T11:57:54.545Z,13.61
2022-09-17T12:01:37.299Z,13.66
2022-09-17T12:04:52.453Z,13.79
2022-09-17T12:08:18.673Z,13.72
2022-09-17T12:11:24.641Z,13.77
2022-09-17T12:14:31.622Z,13.47
2022-09-17T12:17:41.327Z,13.62
2022-09-17T12:20:46.495Z,13.74
2022-09-17T12:24:00.243Z,13.88
2022-09-17T12:27:20.499Z,13.72
2022-09-17T12:30:32.665Z,13.48
2022-09-17T12:33:41.140Z,13.71
2022-09-17T12:36:53.030Z,13.68
2022-09-17T12:40:09.959Z,13.54
2022-09-17T12:43:43.249Z,13.66
2022-09-17T12:46:51.703Z,13.57
2022-09-17T12:50:14.924Z,14.04
2022-09-17T12:53:23.834Z,13.97
2022-09-17T12:56:54.324Z,14.18
2022-09-17T13:00:07.963Z,14.25
2022-09-17T13:03:18.890Z,14.51
2022-09-17T13:06:25.190Z,14.51
2022-09-17T13:09:42.391Z,14.19
2022-09-17T13:12:51.897Z,14.08
2022-09-17T13:16:20.138Z,14.03
2022-09-17T13:19:46.917Z,13.72
2022-09-17T13:22:50.744Z,13.85
2022-09-17T13:25:56.045Z,13.89
2022-09-17T13:28:58.038Z,13.57
2022-09-17T13:31:59.936Z,13.51
2022-09-17T13:35:14.705Z,13.45
2022-09-17T13:38:20.218Z,13.58
2022-09-17T13:41:25.883Z,13.53
2022-09-17T13:44:27.756Z,13.54
2022-09-17T13:47:31.893Z,13.47
2022-09-17T13:50:34.076Z,13.19
2022-09-17T13:53:39.060Z,13.00
2022-09-17T13:57:03.310Z,13.01
2022-09-17T14:00:05.991Z,12.79
2022-09-17T14:03:31.054Z,12.63
2022-09-17T14:06:33.799Z,12.71
2022-09-17T14:09:52.892Z,12.79
2022-09-17T14:12:58.475Z,12.86
2022-09-17T14:16:02.636Z,12.85
2022-09-17T14:19:17.078Z,12.94
2022-09-17T14:22:26.590Z,13.02
2022-09-17T14:25:41.390Z,12.92
2022-09-17T14:28:52.973Z,12.67
2022-09-17T14:31:56.168Z,12.74
2022-09-17T14:35:01.004Z,12.70
2022-09-17T14:38:24.928Z,12.63
2022-09-17T14:41:35.699Z,12.81
2022-09-17T14:44:37.702Z,12.52
2022-09-17T14:47:39.513Z,12.53
2022-09-17T14:50:41.634Z,12.51
2022-09-17T14:53:44.658Z,12.44
2022-09-17T14:57:09.721Z,12.48
2022-09-17T15:00:38.481Z,12.45
2022-09-17T15:03:40.245Z,12.53
2022-09-17T15:06:43.717Z,12.52
2022-09-17T15:09:46.120Z,12.34
2022-09-17T15:12:49.480Z,12.52
2022-09-17T15:15:53.696Z,12.58
2022-09-17T15:18:58.555Z,12.32
2022-09-17T15:22:09.751Z,12.22
2022-09-17T15:25:24.112Z,12.18
2022-09-17T15:28:37.046Z,12.31
2022-09-17T15:31:39.444Z,12.29
2022-09-17T15:34:42.098Z,12.36
2022-09-17T15:37:55.861Z,12.38
2022-09-17T15:41:33.917Z,12.30
2022-09-17T15:44:36.008Z,12.34
2022-09-17T15:47:59.731Z,12.31
2022-09-17T15:51:03.605Z,12.57
2022-09-17T15:54:07.061Z,12.53
2022-09-17T15:57:14.540Z,12.46
2022-09-17T16:00:17.277Z,12.37
2022-09-17T16:03:38.312Z,12.15
2022-09-17T16:06:49.384Z,12.21
2022-09-17T16:09:53.455Z,12.24
2022-09-17T16:12:55.384Z,12.15
2022-09-17T16:15:57.452Z,12.17
2022-09-17T16:18:59.869Z,12.02
2022-09-17T16:22:02.065Z,11.88
2022-09-17T16:25:04.913Z,11.83
2022-09-17T16:28:11.205Z,11.80
2022-09-17T16:31:13.794Z,11.75
2022-09-17T16:34:15.768Z,11.80
2022-09-17T16:37:18.291Z,11.91
2022-09-17T16:40:21.984Z,11.87
2022-09-17T16:43:24.330Z,12.02
2022-09-17T16:46:26.367Z,12.03
2022-09-17T16:49:28.286Z,12.02
2022-09-17T16:52:30.540Z,12.03
2022-09-17T16:55:32.908Z,12.07
2022-09-17T16:58:35.056Z,12.13
2022-09-17T17:01:39.347Z,12.06
2022-09-17T17:04:41.207Z,12.07
2022-09-17T17:07:43.267Z,12.03
2022-09-17T17:10:45.264Z,12.00
2022-09-17T17:13:47.586Z,11.94
2022-09-17T17:16:49.517Z,11.91
2022-09-17T17:19:51.590Z,11.90
2022-09-17T17:22:55.330Z,11.88
2022-09-17T17:25:57.674Z,11.82
2022-09-17T17:28:59.721Z,11.86
2022-09-17T17:32:05.504Z,11.65
2022-09-17T17:35:08.206Z,11.66
2022-09-17T17:38:10.703Z,11.66
2022-09-17T17:41:15.029Z,11.65
2022-09-17T17:44:17.363Z,11.66
2022-09-17T17:47:19.338Z,11.67
2022-09-17T17:50:21.746Z,11.70
2022-09-17T17:53:24.073Z,11.62
2022-09-17T17:56:26.382Z,11.63
2022-09-17T17:59:28.675Z,11.60
2022-09-17T18:02:31.003Z,11.48
2022-09-17T18:05:33.771Z,11.41
2022-09-17T18:08:38.258Z,11.41
2022-09-17T18:11:40.629Z,11.45
2022-09-17T18:14:42.860Z,11.34
2022-09-17T18:17:48.126Z,11.30
2022-09-17T18:20:52.351Z,11.39
2022-09-17T18:23:56.301Z,11.35
2022-09-17T18:26:58.852Z,11.38
2022-09-17T18:30:01.141Z,11.39
2022-09-17T18:33:03.622Z,11.39
2022-09-17T18:36:06.182Z,11.42
2022-09-17T18:39:46.699Z,11.30
2022-09-17T18:42:33.822Z,11.39
2022-09-17T18:45:35.849Z,11.31
2022-09-17T18:48:38.267Z,11.32
2022-09-17T18:51:40.406Z,11.23
2022-09-17T18:54:43.166Z,11.29
2022-09-17T18:57:45.077Z,11.30
2022-09-17T19:00:47.078Z,11.31
2022-09-17T19:03:49.110Z,11.33
2022-09-17T19:06:51.521Z,11.37
2022-09-17T19:09:54.027Z,11.32
2022-09-17T19:12:56.145Z,11.26
2022-09-17T19:16:01.995Z,11.30
2022-09-17T19:19:05.169Z,11.26
2022-09-17T19:22:08.268Z,11.30
2022-09-17T19:25:10.474Z,11.20
2022-09-17T19:28:12.556Z,11.20
2022-09-17T19:31:16.747Z,11.14
2022-09-17T19:34:19.205Z,11.18
2022-09-17T19:37:21.267Z,11.13
2022-09-17T19:40:23.350Z,11.01
2022-09-17T19:43:26.851Z,11.00
2022-09-17T19:46:30.035Z,10.90
2022-09-17T19:49:32.459Z,10.88
2022-09-17T19:52:34.713Z,10.76
2022-09-17T19:55:38.326Z,10.74
2022-09-17T19:58:41.031Z,10.82
2022-09-17T20:01:47.294Z,10.64
2022-09-17T20:04:51.875Z,10.61
2022-09-17T20:07:53.924Z,10.58
2022-09-17T20:10:56.172Z,10.65
2022-09-17T20:14:06.537Z,10.59
2022-09-17T20:17:09.161Z,10.48
2022-09-17T20:20:11.040Z,10.51
2022-09-17T20:23:12.961Z,10.39
2022-09-17T20:26:16.628Z,10.41
2022-09-17T20:29:18.472Z,10.32
2022-09-17T20:32:26.202Z,10.27
2022-09-17T20:35:28.621Z,10.25
2022-09-17T20:39:10.124Z,10.17
2022-09-17T20:41:52.801Z,10.18
2022-09-17T20:44:54.868Z,10.21
2022-09-17T20:47:57.812Z,10.14
2022-09-17T20:51:01.979Z,10.19
2022-09-17T20:54:04.542Z,10.13
2022-09-17T20:57:06.390Z,10.11
2022-09-17T21:00:19.192Z,10.07
2022-09-17T21:03:23.063Z,10.24
2022-09-17T21:06:30.508Z,10.07
2022-09-17T21:09:32.590Z,10.07
2022-09-17T21:12:34.688Z,10.17
2022-09-17T21:15:36.979Z,10.15
2022-09-17T21:18:40.249Z,10.19
2022-09-17T21:21:42.617Z,10.23
2022-09-17T21:24:44.659Z,10.17
2022-09-17T21:27:46.385Z,10.15
2022-09-17T21:30:48.979Z,10.04
2022-09-17T21:33:54.140Z,10.11
2022-09-17T21:36:56.880Z,9.98
2022-09-17T21:40:01.615Z,10.04
2022-09-17T21:43:03.884Z,10.03
2022-09-17T21:46:06.308Z,10.07
2022-09-17T21:49:08.968Z,10.09
2022-09-17T21:52:11.232Z,9.93
2022-09-17T21:55:13.920Z,9.82
2022-09-17T21:58:15.842Z,9.79
2022-09-17T22:01:21.696Z,9.76
2022-09-17T22:04:24.136Z,9.76
2022-09-17T22:07:26.171Z,9.74
2022-09-17T22:10:28.038Z,9.58
2022-09-17T22:13:30.105Z,9.58
2022-09-17T22:16:33.881Z,9.51
2022-09-17T22:19:35.971Z,9.52
2022-09-17T22:22:37.979Z,9.49
2022-09-17T22:25:40.089Z,9.48
2022-09-17T22:28:42.201Z,9.47
2022-09-17T22:31:45.818Z,9.54
2022-09-17T22:34:47.821Z,9.54
2022-09-17T22:37:49.725Z,9.52
2022-09-17T22:40:51.655Z,9.57
2022-09-17T22:43:55.251Z,9.57
2022-09-17T22:46:57.294Z,9.52
2022-09-17T22:49:59.334Z,9.65
2022-09-17T22:53:01.105Z,9.61
2022-09-17T22:56:05.038Z,9.58
2022-09-17T22:59:07.100Z,9.67
2022-09-17T23:02:09.126Z,9.74
2022-09-17T23:05:11.120Z,9.77
2022-09-17T23:08:13.917Z,9.75
2022-09-17T23:11:19.694Z,9.87
2022-09-17T23:14:21.494Z,9.72
2022-09-17T23:17:28.647Z,9.72
2022-09-17T23:20:32.235Z,9.76
2022-09-17T23:23:35.063Z,9.88
2022-09-17T23:26:37.344Z,9.72
2022-09-17T23:29:39.273Z,9.66
2022-09-17T23:32:41.524Z,9.72
2022-09-17T23:35:43.265Z,9.72
2022-09-17T23:38:46.340Z,9.75
2022-09-17T23:41:48.501Z,9.71
2022-09-17T23:44:50.166Z,9.74
2022-09-17T23:47:52.523Z,9.66
2022-09-17T23:50:54.459Z,9.60
2022-09-17T23:53:56.874Z,9.60
2022-09-17T23:56:58.944Z,9.63
